createdAt,value
2018-01-25T00:02:05.650Z,6.60
2018-01-25T00:04:35.101Z,6.50
2018-01-25T00:07:04.104Z,6.60
2018-01-25T00:09:33.356Z,6.70
2018-01-25T00:12:02.987Z,6.70
2018-01-25T00:14:32.387Z,6.60
2018-01-25T00:17:01.815Z,6.60
2018-01-25T00:19:31.365Z,6.50
2018-01-25T00:22:00.489Z,6.40
2018-01-25T00:24:30.122Z,6.40
2018-01-25T00:27:01.104Z,6.30
2018-01-25T00:29:30.920Z,6.40
2018-01-25T00:32:00.175Z,6.30
2018-01-25T00:34:29.784Z,6.30
2018-01-25T00:36:59.136Z,6.20
2018-01-25T00:39:28.504Z,6.00
2018-01-25T00:41:58.632Z,6.00
2018-01-25T00:44:28.457Z,6.00
2018-01-25T00:46:57.504Z,6.00
2018-01-25T00:49:27.168Z,6.00
2018-01-25T00:51:56.532Z,6.00
2018-01-25T00:54:26.337Z,5.90
2018-01-25T00:56:56.124Z,6.00
2018-01-25T00:59:25.557Z,6.00
2018-01-25T01:01:54.841Z,6.00
2018-01-25T01:04:25.015Z,6.10
2018-01-25T01:06:54.400Z,6.00
2018-01-25T01:09:23.692Z,6.00
2018-01-25T01:11:53.278Z,5.90
2018-01-25T01:14:22.335Z,5.90
2018-01-25T01:16:51.712Z,5.90
2018-01-25T01:19:21.243Z,5.90
2018-01-25T01:21:51.044Z,5.90
2018-01-25T01:24:20.814Z,6.00
2018-01-25T01:26:50.935Z,6.00
2018-01-25T01:29:20.348Z,6.10
2018-01-25T01:31:49.831Z,6.20
2018-01-25T01:34:19.529Z,6.30
2018-01-25T01:36:49.167Z,6.30
2018-01-25T01:39:24.239Z,6.30
2018-01-25T01:41:54.143Z,6.20
2018-01-25T01:44:23.815Z,6.10
2018-01-25T01:46:54.356Z,6.10
2018-01-25T01:49:24.166Z,6.10
2018-01-25T01:51:53.437Z,6.20
2018-01-25T01:54:22.486Z,6.10
2018-01-25T01:56:52.396Z,6.00
2018-01-25T01:59:22.001Z,6.00
2018-01-25T02:01:51.419Z,6.00
2018-01-25T02:04:21.760Z,6.10
2018-01-25T02:06:51.394Z,6.20
2018-01-25T02:09:22.824Z,6.20
2018-01-25T02:11:54.009Z,5.80
2018-01-25T02:14:24.690Z,5.80
2018-01-25T02:16:54.185Z,5.80
2018-01-25T02:19:23.854Z,5.70
2018-01-25T02:21:53.793Z,5.70
2018-01-25T02:24:23.216Z,5.80
2018-01-25T02:26:52.330Z,5.70
2018-01-25T02:29:21.372Z,5.60
2018-01-25T02:31:50.686Z,5.50
2018-01-25T02:34:20.267Z,5.50
2018-01-25T02:36:49.618Z,5.60
2018-01-25T02:39:19.079Z,5.50
2018-01-25T02:41:51.211Z,5.30
2018-01-25T02:44:20.217Z,5.40
2018-01-25T02:46:49.486Z,5.40
2018-01-25T02:49:18.791Z,5.20
2018-01-25T02:51:47.956Z,5.20
2018-01-25T02:54:17.546Z,5.20
2018-01-25T02:56:47.276Z,5.30
2018-01-25T02:59:17.359Z,5.30
2018-01-25T03:01:48.033Z,5.50
2018-01-25T03:04:17.036Z,5.50
2018-01-25T03:06:46.268Z,5.50
2018-01-25T03:09:16.452Z,5.60
2018-01-25T03:11:45.560Z,5.60
2018-01-25T03:14:15.005Z,5.50
2018-01-25T03:16:45.091Z,5.40
2018-01-25T03:19:14.328Z,5.20
2018-01-25T03:21:44.187Z,5.10
2018-01-25T03:24:13.985Z,5.10
2018-01-25T03:26:43.187Z,5.10
2018-01-25T03:29:12.480Z,5.10
2018-01-25T03:31:42.238Z,5.00
2018-01-25T03:34:11.885Z,4.90
2018-01-25T03:36:41.211Z,5.00
2018-01-25T03:39:11.373Z,5.00
2018-01-25T03:41:41.556Z,5.00
2018-01-25T03:44:10.947Z,5.00
2018-01-25T03:46:40.994Z,5.10
2018-01-25T03:49:10.983Z,5.00
2018-01-25T03:51:40.986Z,5.00
2018-01-25T03:54:10.302Z,5.00
2018-01-25T03:56:39.713Z,4.90
2018-01-25T03:59:09.411Z,4.80
2018-01-25T04:01:39.218Z,4.90
2018-01-25T04:04:08.806Z,4.90
2018-01-25T04:06:38.698Z,5.00
2018-01-25T04:09:07.934Z,5.00
2018-01-25T04:11:37.509Z,5.10
2018-01-25T04:14:07.564Z,5.20
2018-01-25T04:16:37.643Z,5.10
2018-01-25T04:19:06.983Z,5.10
2018-01-25T04:21:36.843Z,5.10
2018-01-25T04:24:07.157Z,5.10
2018-01-25T04:26:36.832Z,5.00
2018-01-25T04:29:06.630Z,5.00
2018-01-25T04:31:36.938Z,4.90
2018-01-25T04:34:06.873Z,4.90
2018-01-25T04:36:38.163Z,5.10
2018-01-25T04:39:07.510Z,5.10
2018-01-25T04:41:36.925Z,5.10
2018-01-25T04:44:10.231Z,5.20
2018-01-25T04:46:40.033Z,5.20
2018-01-25T04:49:09.352Z,5.20
2018-01-25T04:51:39.375Z,5.20
2018-01-25T04:54:09.662Z,5.30
2018-01-25T04:56:38.979Z,5.20
2018-01-25T04:59:08.730Z,5.40
2018-01-25T05:01:39.111Z,5.30
2018-01-25T05:04:09.318Z,5.30
2018-01-25T05:06:39.011Z,5.30
2018-01-25T05:09:08.305Z,5.30
2018-01-25T05:11:37.660Z,5.40
2018-01-25T05:14:07.113Z,5.40
2018-01-25T05:16:36.776Z,5.40
2018-01-25T05:19:06.270Z,5.30
2018-01-25T05:21:35.965Z,5.30
2018-01-25T05:24:05.186Z,5.20
2018-01-25T05:26:34.290Z,5.20
2018-01-25T05:29:04.368Z,5.20
2018-01-25T05:31:35.016Z,5.00
2018-01-25T05:34:04.175Z,5.00
2018-01-25T05:36:35.057Z,5.00
2018-01-25T05:39:05.091Z,5.00
2018-01-25T05:41:34.536Z,5.10
2018-01-25T05:44:12.020Z,5.10
2018-01-25T05:46:41.385Z,5.10
2018-01-25T05:49:12.002Z,5.00
2018-01-25T05:51:43.745Z,5.10
2018-01-25T05:54:13.643Z,5.10
2018-01-25T05:59:46.807Z,5.00
2018-01-25T06:02:16.257Z,5.00
2018-01-25T06:04:45.395Z,4.90
2018-01-25T06:07:15.525Z,4.80
2018-01-25T06:09:47.820Z,4.80
2018-01-25T06:12:17.168Z,4.80
2018-01-25T06:14:47.267Z,4.80
2018-01-25T06:17:16.686Z,4.80
2018-01-25T06:19:46.088Z,4.90
2018-01-25T06:22:17.901Z,4.80
2018-01-25T06:24:47.365Z,4.80
2018-01-25T06:27:16.881Z,4.90
2018-01-25T06:30:06.983Z,4.80
2018-01-25T06:32:37.927Z,4.80
2018-01-25T06:35:08.410Z,4.70
2018-01-25T06:37:39.682Z,4.70
2018-01-25T06:42:58.158Z,4.70
2018-01-25T06:45:27.567Z,4.70
2018-01-25T06:47:59.836Z,4.70
2018-01-25T06:50:35.372Z,4.50
2018-01-25T06:53:04.962Z,4.50
2018-01-25T06:55:34.282Z,4.50
2018-01-25T06:58:03.808Z,4.50
2018-01-25T07:00:32.906Z,4.50
2018-01-25T07:03:02.059Z,4.60
2018-01-25T07:05:32.352Z,4.60
2018-01-25T07:08:01.906Z,4.70
2018-01-25T07:10:31.102Z,4.70
2018-01-25T07:13:01.253Z,4.80
2018-01-25T07:15:34.059Z,4.80
2018-01-25T07:18:03.958Z,4.70
2018-01-25T07:20:34.357Z,4.70
2018-01-25T07:23:03.996Z,4.70
2018-01-25T07:25:35.034Z,4.80
2018-01-25T07:28:05.530Z,4.80
2018-01-25T07:30:36.931Z,4.80
2018-01-25T07:33:09.965Z,4.80
2018-01-25T07:35:43.514Z,4.90
2018-01-25T07:38:15.615Z,4.90
2018-01-25T07:40:46.869Z,4.90
2018-01-25T07:43:19.481Z,5.00
2018-01-25T07:45:50.877Z,5.10
2018-01-25T07:48:20.492Z,5.10
2018-01-25T07:50:50.345Z,5.20
2018-01-25T07:53:20.477Z,5.10
2018-01-25T07:55:51.403Z,5.10
2018-01-25T07:58:45.867Z,5.00
2018-01-25T08:01:17.010Z,5.00
2018-01-25T08:03:49.352Z,5.10
2018-01-25T08:06:19.263Z,5.20
2018-01-25T08:08:50.718Z,5.50
2018-01-25T08:11:20.903Z,5.60
2018-01-25T08:13:51.138Z,5.60
2018-01-25T08:16:25.117Z,5.70
2018-01-25T08:18:55.530Z,5.70
2018-01-25T08:21:25.834Z,5.70
2018-01-25T08:23:56.694Z,5.60
2018-01-25T08:26:29.617Z,5.60
2018-01-25T08:28:59.568Z,5.50
2018-01-25T08:31:46.518Z,5.50
2018-01-25T08:34:18.203Z,5.50
2018-01-25T08:36:49.281Z,5.60
2018-01-25T08:39:20.601Z,5.40
2018-01-25T08:41:49.819Z,5.40
2018-01-25T08:44:20.258Z,5.50
2018-01-25T08:46:54.058Z,5.70
2018-01-25T08:49:25.802Z,5.80
2018-01-25T08:51:56.082Z,5.80
2018-01-25T08:54:25.737Z,5.80
2018-01-25T09:03:43.392Z,5.70
2018-01-25T09:06:34.714Z,5.80
2018-01-25T09:09:06.791Z,5.80
2018-01-25T09:14:40.804Z,5.90
2018-01-25T09:17:19.438Z,6.20
2018-01-25T09:19:50.978Z,6.20
2018-01-25T10:06:18.386Z,6.60
2018-01-25T10:08:49.917Z,8.00
2018-01-25T10:11:22.070Z,8.20
2018-01-25T10:14:06.314Z,8.60
2018-01-25T10:16:42.609Z,8.90
2018-01-25T10:19:13.891Z,8.90
2018-01-25T10:21:44.273Z,8.80
2018-01-25T10:24:14.114Z,9.40
2018-01-25T10:27:05.733Z,9.90
2018-01-25T10:29:46.560Z,9.90
2018-01-25T10:32:18.882Z,9.80
2018-01-25T10:34:51.673Z,9.50
2018-01-25T10:37:30.250Z,9.50
2018-01-25T10:40:00.430Z,9.30
2018-01-25T10:42:32.340Z,9.20
2018-01-25T10:45:04.046Z,9.30
2018-01-25T10:47:35.515Z,9.70
2018-01-25T10:50:06.527Z,9.90
2018-01-25T10:52:38.044Z,10.30
2018-01-25T10:55:08.831Z,10.30
2018-01-25T10:57:39.331Z,10.40
2018-01-25T11:00:35.776Z,10.60
2018-01-25T11:03:06.644Z,10.80
2018-01-25T11:05:36.546Z,10.80
2018-01-25T11:08:07.519Z,11.10
2018-01-25T11:10:38.594Z,11.30
2018-01-25T11:13:08.931Z,11.80
2018-01-25T11:15:38.081Z,11.80
2018-01-25T11:18:07.537Z,12.10
2018-01-25T11:20:37.358Z,11.70
2018-01-25T11:23:06.880Z,11.90
2018-01-25T11:25:40.262Z,11.70
2018-01-25T11:31:54.561Z,11.70
2018-01-25T11:34:24.466Z,11.40
2018-01-25T11:36:53.724Z,11.90
2018-01-25T11:48:52.096Z,12.20
2018-01-25T11:51:47.260Z,12.50
2018-01-25T11:54:17.826Z,12.30
2018-01-25T11:56:48.230Z,12.50
2018-01-25T11:59:18.408Z,12.70
2018-01-25T12:01:51.986Z,12.70
2018-01-25T12:04:25.398Z,13.00
2018-01-25T12:07:00.266Z,12.80
2018-01-25T12:12:53.798Z,13.50
2018-01-25T12:15:26.085Z,13.50
2018-01-25T12:17:57.481Z,13.30
2018-01-25T12:20:28.774Z,13.20
2018-01-25T12:23:04.037Z,13.30
2018-01-25T12:25:36.269Z,13.50
2018-01-25T12:28:05.982Z,13.40
2018-01-25T12:30:38.739Z,12.90
2018-01-25T12:33:08.366Z,12.90
2018-01-25T12:35:40.533Z,12.50
2018-01-25T12:38:15.096Z,12.40
2018-01-25T12:40:46.786Z,12.20
2018-01-25T12:43:19.393Z,12.20
2018-01-25T12:45:52.057Z,12.20
2018-01-25T12:48:31.222Z,12.20
2018-01-25T12:51:00.937Z,12.10
2018-01-25T12:53:30.724Z,12.00
2018-01-25T12:56:06.223Z,12.20
2018-01-25T12:58:37.477Z,12.50
2018-01-25T13:01:07.029Z,12.50
2018-01-25T13:07:00.381Z,12.40
2018-01-25T13:09:35.150Z,12.30
2018-01-25T13:12:05.081Z,12.20
2018-01-25T13:14:36.039Z,12.00
2018-01-25T13:17:05.623Z,12.00
2018-01-25T13:19:35.416Z,11.90
2018-01-25T13:22:09.317Z,11.80
2018-01-25T13:24:40.040Z,11.70
2018-01-25T13:27:24.297Z,11.30
2018-01-25T13:30:03.452Z,11.00
2018-01-25T13:32:38.606Z,10.90
2018-01-25T13:35:08.703Z,10.70
2018-01-25T13:37:38.751Z,10.50
2018-01-25T13:40:08.166Z,10.40
2018-01-25T13:42:38.977Z,10.40
2018-01-25T13:45:09.540Z,10.30
2018-01-25T13:47:43.323Z,10.10
2018-01-25T13:50:12.838Z,10.10
2018-01-25T13:52:42.346Z,10.10
2018-01-25T13:55:12.860Z,10.10
2018-01-25T14:01:02.293Z,10.00
2018-01-25T14:03:32.844Z,9.90
2018-01-25T14:06:11.081Z,10.00
2018-01-25T14:08:42.408Z,10.00
2018-01-25T14:11:22.407Z,10.10
2018-01-25T14:13:58.686Z,10.10
2018-01-25T14:19:53.984Z,9.80
2018-01-25T14:22:27.681Z,9.80
2018-01-25T14:25:02.311Z,9.50
2018-01-25T14:27:35.061Z,9.50
2018-01-25T14:30:14.201Z,9.40
2018-01-25T14:32:49.733Z,9.40
2018-01-25T14:35:22.618Z,9.30
2018-01-25T14:37:54.880Z,9.30
2018-01-25T14:40:29.792Z,9.20
2018-01-25T14:45:46.725Z,9.10
2018-01-25T14:54:51.242Z,8.90
2018-01-25T14:57:51.737Z,8.70
2018-01-25T15:00:25.737Z,8.60
2018-01-25T15:02:55.612Z,8.60
2018-01-25T15:05:29.151Z,8.50
2018-01-25T15:08:01.863Z,8.40
2018-01-25T15:10:37.449Z,8.40
2018-01-25T15:16:04.022Z,8.30
2018-01-25T15:18:35.996Z,8.30
2018-01-25T15:21:15.681Z,8.20
2018-01-25T15:23:58.059Z,8.20
2018-01-25T15:30:00.308Z,8.10
2018-01-25T15:32:47.188Z,8.00
2018-01-25T15:36:04.383Z,8.00
2018-01-25T15:38:50.808Z,7.90
2018-01-25T15:41:51.137Z,7.70
2018-01-25T15:44:49.822Z,7.70
2018-01-25T15:47:22.165Z,7.60
2018-01-25T15:50:01.472Z,7.50
2018-01-25T15:52:31.584Z,7.50
2018-01-25T15:55:03.384Z,7.50
2018-01-25T15:57:36.569Z,7.30
2018-01-25T16:00:06.057Z,7.30
2018-01-25T16:02:36.144Z,7.30
2018-01-25T16:05:05.579Z,7.20
2018-01-25T16:07:35.429Z,7.20
2018-01-25T16:10:04.514Z,7.10
2018-01-25T16:12:34.133Z,7.10
2018-01-25T16:15:03.246Z,7.10
2018-01-25T16:17:32.474Z,7.10
2018-01-25T16:20:02.083Z,7.10
2018-01-25T16:22:31.582Z,7.00
2018-01-25T16:25:02.172Z,6.90
2018-01-25T16:27:34.002Z,7.00
2018-01-25T16:30:04.107Z,6.90
2018-01-25T16:32:34.004Z,6.90
2018-01-25T16:35:03.546Z,6.90
2018-01-25T16:37:33.389Z,6.90
2018-01-25T16:40:03.695Z,6.80
2018-01-25T16:42:34.706Z,6.70
2018-01-25T16:45:04.038Z,6.70
2018-01-25T16:47:33.317Z,6.60
2018-01-25T16:50:02.455Z,6.50
2018-01-25T16:52:32.459Z,6.60
2018-01-25T16:55:03.180Z,6.50
2018-01-25T16:57:32.901Z,6.50
2018-01-25T17:00:02.077Z,6.50
2018-01-25T17:02:31.805Z,6.50
2018-01-25T17:05:02.472Z,6.50
2018-01-25T17:07:33.267Z,6.50
2018-01-25T17:10:04.650Z,6.60
2018-01-25T17:12:34.808Z,6.60
2018-01-25T17:15:11.693Z,6.40
2018-01-25T17:17:45.711Z,6.40
2018-01-25T17:20:33.636Z,6.50
2018-01-25T17:23:03.883Z,6.40
2018-01-25T17:25:37.444Z,6.30
2018-01-25T17:28:07.211Z,6.20
2018-01-25T17:30:36.790Z,6.10
2018-01-25T17:33:06.552Z,6.10
2018-01-25T17:35:36.468Z,6.00
2018-01-25T17:38:06.755Z,6.00
2018-01-25T17:40:37.409Z,5.90
2018-01-25T17:43:10.231Z,5.80
2018-01-25T17:45:39.784Z,5.80
2018-01-25T17:48:09.031Z,5.80
2018-01-25T17:50:39.528Z,5.80
2018-01-25T17:53:09.555Z,5.80
2018-01-25T17:55:39.672Z,5.80
2018-01-25T17:58:10.191Z,5.80
2018-01-25T18:00:39.830Z,5.80
2018-01-25T18:03:11.223Z,5.90
2018-01-25T18:05:40.824Z,5.90
2018-01-25T18:08:11.491Z,6.00
2018-01-25T18:10:44.737Z,5.90
2018-01-25T18:13:15.188Z,5.90
2018-01-25T18:15:44.345Z,5.90
2018-01-25T18:18:14.381Z,5.80
2018-01-25T18:20:45.699Z,5.80
2018-01-25T18:23:15.558Z,5.80
2018-01-25T18:25:46.314Z,5.90
2018-01-25T18:28:16.424Z,5.90
2018-01-25T18:30:47.232Z,5.90
2018-01-25T18:33:16.763Z,5.80
2018-01-25T18:35:46.302Z,5.80
2018-01-25T18:38:15.457Z,5.80
2018-01-25T18:40:44.647Z,5.80
2018-01-25T18:43:14.657Z,5.80
2018-01-25T18:45:44.067Z,5.70
2018-01-25T18:48:13.198Z,5.70
2018-01-25T18:50:42.831Z,5.60
2018-01-25T18:53:12.069Z,5.70
2018-01-25T18:55:41.203Z,5.70
2018-01-25T18:58:10.385Z,5.90
2018-01-25T19:00:39.794Z,5.80
2018-01-25T19:03:09.826Z,5.80
2018-01-25T19:05:39.535Z,5.80
2018-01-25T19:08:08.805Z,5.70
2018-01-25T19:10:38.372Z,5.60
2018-01-25T19:13:08.106Z,5.50
2018-01-25T19:15:37.574Z,5.40
2018-01-25T19:18:07.069Z,5.40
2018-01-25T19:20:36.685Z,5.50
2018-01-25T19:23:06.053Z,5.70
2018-01-25T19:25:36.466Z,5.80
2018-01-25T19:28:05.726Z,5.70
2018-01-25T19:30:35.642Z,5.60
2018-01-25T19:33:04.806Z,5.60
2018-01-25T19:35:34.461Z,5.60
2018-01-25T19:38:04.019Z,5.60
2018-01-25T19:40:33.250Z,5.70
2018-01-25T19:43:03.873Z,5.70
2018-01-25T19:45:33.387Z,5.70
2018-01-25T19:48:04.315Z,5.80
2018-01-25T19:50:34.327Z,5.80
2018-01-25T19:53:03.471Z,5.80
2018-01-25T19:55:32.642Z,5.90
2018-01-25T19:58:03.841Z,5.90
2018-01-25T20:00:33.126Z,5.90
2018-01-25T20:03:02.491Z,6.00
2018-01-25T20:05:33.343Z,6.00
2018-01-25T20:08:02.598Z,6.10
2018-01-25T20:10:32.067Z,6.10
2018-01-25T20:13:01.999Z,6.10
2018-01-25T20:15:32.669Z,5.80
2018-01-25T20:18:06.085Z,5.80
2018-01-25T20:20:38.924Z,5.70
2018-01-25T20:23:08.426Z,5.70
2018-01-25T20:25:38.123Z,5.60
2018-01-25T20:28:08.756Z,5.50
2018-01-25T20:30:38.699Z,5.60
2018-01-25T20:33:10.276Z,5.60
2018-01-25T20:35:39.758Z,5.80
2018-01-25T20:38:09.033Z,5.80
2018-01-25T20:40:38.183Z,5.90
2018-01-25T20:43:08.449Z,5.80
2018-01-25T20:45:37.724Z,5.80
2018-01-25T20:48:06.862Z,5.80
2018-01-25T20:50:36.459Z,5.70
2018-01-25T20:53:06.717Z,5.60
2018-01-25T20:55:36.611Z,5.60
2018-01-25T20:58:06.269Z,5.60
2018-01-25T21:00:35.671Z,5.60
2018-01-25T21:03:05.267Z,5.40
2018-01-25T21:05:35.956Z,5.40
2018-01-25T21:08:05.293Z,5.50
2018-01-25T21:10:34.537Z,5.40
2018-01-25T21:13:04.352Z,5.50
2018-01-25T21:15:33.471Z,5.50
2018-01-25T21:18:02.549Z,5.60
2018-01-25T21:20:32.751Z,5.70
2018-01-25T21:23:02.188Z,5.70
2018-01-25T21:25:31.626Z,5.60
2018-01-25T21:28:01.371Z,5.70
2018-01-25T21:30:30.582Z,5.60
2018-01-25T21:33:00.227Z,5.60
2018-01-25T21:35:29.935Z,5.40
2018-01-25T21:37:59.671Z,5.40
2018-01-25T21:40:29.063Z,5.20
2018-01-25T21:42:59.231Z,5.20
2018-01-25T21:45:28.321Z,5.20
2018-01-25T21:47:57.397Z,5.30
2018-01-25T21:50:26.768Z,5.40
2018-01-25T21:52:56.615Z,5.40
2018-01-25T21:55:25.936Z,5.40
2018-01-25T21:57:55.614Z,5.50
2018-01-25T22:00:25.105Z,5.50
2018-01-25T22:02:55.596Z,5.30
2018-01-25T22:05:26.894Z,5.20
2018-01-25T22:07:56.186Z,5.20
2018-01-25T22:10:25.975Z,5.10
2018-01-25T22:12:55.805Z,5.00
2018-01-25T22:15:25.478Z,5.00
2018-01-25T22:17:54.809Z,4.90
2018-01-25T22:20:25.055Z,5.00
2018-01-25T22:22:54.731Z,5.00
2018-01-25T22:25:24.153Z,4.80
2018-01-25T22:27:54.285Z,4.90
2018-01-25T22:30:23.441Z,4.90
2018-01-25T22:32:53.472Z,5.00
2018-01-25T22:35:23.580Z,5.00
2018-01-25T22:37:52.893Z,5.00
2018-01-25T22:40:22.598Z,5.00
2018-01-25T22:42:52.755Z,4.90
2018-01-25T22:45:22.581Z,4.90
2018-01-25T22:47:53.381Z,4.90
2018-01-25T22:50:22.962Z,4.90
2018-01-25T22:52:52.305Z,5.00
2018-01-25T22:55:21.901Z,4.90
2018-01-25T22:57:52.045Z,5.00
2018-01-25T23:00:25.489Z,5.00
2018-01-25T23:02:54.664Z,4.90
2018-01-25T23:05:26.614Z,4.80
2018-01-25T23:07:56.781Z,4.70
2018-01-25T23:10:26.208Z,4.80
2018-01-25T23:12:56.001Z,4.70
2018-01-25T23:15:25.813Z,4.70
2018-01-25T23:17:55.399Z,4.70
2018-01-25T23:20:24.997Z,4.70
2018-01-25T23:22:54.931Z,4.80
2018-01-25T23:25:24.250Z,4.80
2018-01-25T23:27:54.995Z,4.80
2018-01-25T23:30:24.248Z,4.80
2018-01-25T23:32:54.011Z,4.80
2018-01-25T23:35:23.789Z,4.70
2018-01-25T23:37:53.039Z,4.50
2018-01-25T23:40:22.387Z,4.50
2018-01-25T23:42:52.382Z,4.50
2018-01-25T23:45:21.691Z,4.50
2018-01-25T23:47:50.810Z,4.50
2018-01-25T23:50:21.239Z,4.60
2018-01-25T23:52:50.357Z,4.60
2018-01-25T23:55:19.691Z,4.70
2018-01-25T23:57:49.386Z,4.80
